Arman', Russia
Current Conditions -  °F | °C
As of 4:00 AM on Saturday 25 Oct 2014 (Local Time) from UHMM Reporting Station
Clear Clear  
Wind Chill: -15°   Ceiling: Unl
Heat Index: -15°   Visibility: 6mi
Dew Point: -20°   Wind: 0mph
Humidity: 77%   Direction: NA
Pressure: 29.62"   Gusts: NA
Location:  59.7°N, 150.17°E
Report Text: UHMM 241700Z 00000MPS 9999 SKC M26/M29 Q1003 RMK QFE737
Loading
Personal Weather Stations






























Interactive Weather Map
Tropical Storm Tracking
New forecast layout! Learn more

10-Day Weather Forecast

Advertisements
Track Severe Weather on mobile